Terminal Aerodrome Forecast
Issued by NWS

Home | Current Version | Previous Version | Text Only | Print | Product List | Glossary On
Versions: 1 2 3 4 5 6 7 8 9 10 11 12 13 14 15 16
000
FTUS41 KCAR 261728
TAFFVE
TAF
KFVE 261728Z 2618/2718 34008KT P6SM OVC070
     FM270100 01009KT 4SM -SN OVC025
     FM270200 01013G22KT 1 1/2SM -SN VV008
     FM271500 35015G25KT P6SM BKN025=

USA.gov is the U.S. government's official web portal to all federal, state and local government web resources and services.